Time;durP1;ratioP1;P1;durP2;ratioP2;P2;SDS_P1;SDS_P2;PMS_P1;PMS_P2;Temp;Humidity;BMP_temperature;BMP_pressure;BME280_temperature;BME280_humidity;BME280_pressure;Samples;Min_cycle;Max_cycle;Signal;HPM_P1;HPM_P2
2021/03/12 00:00:17;;;;;;;9.63;2.85;;;;;;;;;;5035534;28;20018;-56
2021/03/12 00:02:44;;;;;;;10.18;2.92;;;;;;;;;;5035315;28;20044;-56
2021/03/12 00:05:12;;;;;;;9.68;3.00;;;;;;;;;;5035597;28;20030;-56
2021/03/12 00:07:40;;;;;;;9.35;2.92;;;;;;;;;;5035441;28;20101;-56
2021/03/12 00:10:11;;;;;;;11.57;3.20;;;;;;;;;;5035486;28;20032;-56
2021/03/12 00:12:38;;;;;;;9.55;3.45;;;;;;;;;;5035210;28;20083;-56
2021/03/12 00:15:09;;;;;;;7.32;3.40;;;;;;;;;;5035124;28;20041;-56
2021/03/12 00:17:36;;;;;;;12.00;3.67;;;;;;;;;;5035055;28;20041;-56
2021/03/12 00:20:05;;;;;;;10.03;3.83;;;;;;;;;;5035130;28;20033;-56
2021/03/12 00:22:31;;;;;;;7.17;3.37;;;;;;;;;;5035405;28;20040;-56
2021/03/12 00:24:58;;;;;;;5.53;3.27;;;;;;;;;;5034875;28;20029;-56
2021/03/12 00:27:25;;;;;;;7.50;3.00;;;;;;;;;;5034975;28;20034;-56
2021/03/12 00:29:52;;;;;;;9.57;3.70;;;;;;;;;;5035054;28;20029;-56
2021/03/12 00:32:18;;;;;;;8.93;3.20;;;;;;;;;;5036242;28;20064;-56
2021/03/12 00:34:45;;;;;;;8.53;3.13;;;;;;;;;;5034723;28;20491;-56
2021/03/12 00:37:12;;;;;;;7.50;3.47;;;;;;;;;;5034762;28;20057;-56
2021/03/12 00:39:39;;;;;;;6.07;2.73;;;;;;;;;;5034805;28;20041;-56
2021/03/12 00:42:07;;;;;;;6.63;3.20;;;;;;;;;;5034724;28;20089;-56
2021/03/12 00:44:34;;;;;;;6.93;3.37;;;;;;;;;;5034734;28;20104;-56
2021/03/12 00:47:01;;;;;;;5.23;3.00;;;;;;;;;;5034697;28;20029;-56
2021/03/12 00:49:28;;;;;;;5.53;2.83;;;;;;;;;;5034628;28;20029;-56
2021/03/12 00:51:55;;;;;;;6.17;2.30;;;;;;;;;;5034578;28;20056;-56
2021/03/12 00:54:22;;;;;;;5.00;2.90;;;;;;;;;;5034532;28;20030;-56
2021/03/12 00:56:48;;;;;;;8.43;2.97;;;;;;;;;;5034289;28;20029;-56
2021/03/12 00:59:15;;;;;;;12.30;3.70;;;;;;;;;;5034280;28;20033;-56
2021/03/12 01:01:42;;;;;;;14.13;3.63;;;;;;;;;;5034244;28;20022;-56
2021/03/12 01:04:09;;;;;;;7.50;3.30;;;;;;;;;;5034306;28;20033;-56
2021/03/12 01:06:35;;;;;;;11.50;4.10;;;;;;;;;;5034271;28;20017;-56
2021/03/12 01:09:03;;;;;;;9.83;4.37;;;;;;;;;;5033935;28;20053;-56
2021/03/12 01:11:30;;;;;;;6.50;3.43;;;;;;;;;;5034084;28;20056;-56
2021/03/12 01:13:56;;;;;;;11.07;4.00;;;;;;;;;;5034194;28;20030;-56
2021/03/12 01:16:23;;;;;;;7.80;3.57;;;;;;;;;;5033892;28;20061;-56
2021/03/12 01:18:50;;;;;;;10.67;3.17;;;;;;;;;;5033956;28;20548;-56
2021/03/12 01:21:17;;;;;;;6.33;3.20;;;;;;;;;;5033815;28;20394;-56
2021/03/12 01:23:44;;;;;;;8.50;4.20;;;;;;;;;;5033698;28;20087;-56
2021/03/12 01:26:11;;;;;;;12.13;4.00;;;;;;;;;;5033857;28;20017;-56
2021/03/12 01:28:38;;;;;;;8.67;3.60;;;;;;;;;;5033767;28;20025;-56
2021/03/12 01:31:05;;;;;;;9.90;3.50;;;;;;;;;;5033521;28;20025;-56
2021/03/12 01:33:32;;;;;;;11.70;3.97;;;;;;;;;;5035024;28;20045;-56
2021/03/12 01:35:58;;;;;;;7.03;2.90;;;;;;;;;;5033652;28;20025;-56
2021/03/12 01:38:25;;;;;;;5.07;2.97;;;;;;;;;;5033510;28;20088;-56
2021/03/12 01:40:52;;;;;;;13.20;4.40;;;;;;;;;;5033527;28;20029;-56
2021/03/12 01:43:19;;;;;;;9.67;3.67;;;;;;;;;;5033197;28;20025;-56
2021/03/12 01:45:47;;;;;;;10.90;3.37;;;;;;;;;;5033501;28;20025;-56
2021/03/12 01:48:15;;;;;;;7.53;3.73;;;;;;;;;;5033352;28;20026;-56
2021/03/12 01:50:44;;;;;;;11.30;4.27;;;;;;;;;;5033482;28;20045;-56
2021/03/12 01:53:11;;;;;;;9.70;4.23;;;;;;;;;;5033256;28;20029;-56
2021/03/12 01:55:39;;;;;;;13.97;5.23;;;;;;;;;;5033380;28;20077;-56
2021/03/12 01:58:06;;;;;;;14.93;5.13;;;;;;;;;;5033094;28;20037;-56
2021/03/12 02:00:33;;;;;;;9.67;4.70;;;;;;;;;;5033236;28;20028;-56
2021/03/12 02:03:00;;;;;;;15.37;4.70;;;;;;;;;;5033214;28;20030;-56
2021/03/12 02:05:27;;;;;;;10.60;4.53;;;;;;;;;;5033134;28;20377;-56
2021/03/12 02:07:55;;;;;;;10.13;4.50;;;;;;;;;;5033187;28;20072;-56
2021/03/12 02:10:27;;;;;;;10.27;4.77;;;;;;;;;;5033071;28;20026;-56
2021/03/12 02:12:54;;;;;;;9.67;4.57;;;;;;;;;;5033039;28;20029;-56
2021/03/12 02:15:30;;;;;;;13.10;4.90;;;;;;;;;;5033084;28;20375;-56
2021/03/12 02:18:07;;;;;;;11.93;4.47;;;;;;;;;;5033031;28;20026;-56
2021/03/12 02:20:37;;;;;;;10.63;5.03;;;;;;;;;;5032312;28;20425;-56
2021/03/12 02:23:24;;;;;;;13.83;5.33;;;;;;;;;;5032798;28;20088;-56
2021/03/12 02:25:56;;;;;;;9.37;4.53;;;;;;;;;;5016414;28;20120;-56
2021/03/12 02:28:23;;;;;;;8.97;5.33;;;;;;;;;;5032953;28;20035;-56
2021/03/12 02:30:50;;;;;;;6.57;4.07;;;;;;;;;;5032767;28;20107;-56
2021/03/12 02:33:17;;;;;;;9.27;4.97;;;;;;;;;;5034086;28;20053;-56
2021/03/12 02:35:46;;;;;;;6.83;4.40;;;;;;;;;;5032848;28;20492;-56
2021/03/12 02:38:13;;;;;;;10.87;4.43;;;;;;;;;;5032741;28;20038;-56
2021/03/12 02:40:40;;;;;;;7.67;4.90;;;;;;;;;;5032673;28;20032;-56
2021/03/12 02:43:07;;;;;;;7.60;5.10;;;;;;;;;;5032527;28;20037;-56
2021/03/12 02:45:34;;;;;;;6.90;4.70;;;;;;;;;;5032432;28;20037;-56
2021/03/12 02:48:01;;;;;;;9.63;5.10;;;;;;;;;;5032563;28;20036;-56
2021/03/12 02:50:27;;;;;;;11.23;5.20;;;;;;;;;;5032721;28;20032;-55
2021/03/12 02:52:54;;;;;;;7.60;4.97;;;;;;;;;;5032562;28;20087;-56
2021/03/12 02:55:21;;;;;;;9.60;4.93;;;;;;;;;;5032653;28;20025;-56
2021/03/12 02:57:48;;;;;;;10.57;5.30;;;;;;;;;;5032553;28;20041;-55
2021/03/12 03:00:15;;;;;;;6.67;4.60;;;;;;;;;;5032691;28;20025;-55
2021/03/12 03:02:43;;;;;;;13.77;4.77;;;;;;;;;;5032442;28;20021;-55
2021/03/12 03:05:11;;;;;;;7.60;4.83;;;;;;;;;;5032401;28;20160;-55
2021/03/12 03:07:38;;;;;;;6.97;4.93;;;;;;;;;;5032485;28;20040;-55
2021/03/12 03:10:10;;;;;;;11.23;5.20;;;;;;;;;;5032518;28;20033;-55
2021/03/12 03:12:37;;;;;;;9.03;5.93;;;;;;;;;;5032355;28;20101;-55
2021/03/12 03:15:05;;;;;;;7.77;4.97;;;;;;;;;;5032341;28;20057;-55
2021/03/12 03:17:32;;;;;;;7.40;5.10;;;;;;;;;;5032278;28;20040;-55
2021/03/12 03:19:59;;;;;;;7.27;3.40;;;;;;;;;;5032285;28;20044;-55
2021/03/12 03:22:26;;;;;;;7.80;4.00;;;;;;;;;;5014360;28;20060;-55
2021/03/12 03:24:55;;;;;;;9.73;5.00;;;;;;;;;;5032319;28;20525;-55
2021/03/12 03:27:22;;;;;;;9.03;6.03;;;;;;;;;;5032207;28;20500;-55
2021/03/12 03:29:48;;;;;;;11.03;5.37;;;;;;;;;;5032360;28;20503;-55
2021/03/12 03:32:15;;;;;;;7.97;5.33;;;;;;;;;;5036388;28;20036;-55
2021/03/12 03:34:43;;;;;;;9.53;4.47;;;;;;;;;;5035837;28;20132;-55
2021/03/12 03:37:10;;;;;;;12.23;4.80;;;;;;;;;;5035890;28;20029;-55
2021/03/12 03:39:36;;;;;;;13.97;3.77;;;;;;;;;;5035859;28;20488;-55
2021/03/12 03:42:05;;;;;;;10.20;4.13;;;;;;;;;;5035719;28;20029;-55
2021/03/12 03:44:34;;;;;;;9.63;4.20;;;;;;;;;;5035756;28;20061;-55
2021/03/12 03:47:02;;;;;;;8.00;4.10;;;;;;;;;;5035653;28;20499;-55
2021/03/12 03:49:29;;;;;;;8.53;4.27;;;;;;;;;;5035684;28;20132;-55
2021/03/12 03:51:56;;;;;;;4.73;2.90;;;;;;;;;;5035689;28;20026;-55
2021/03/12 03:54:23;;;;;;;4.83;2.80;;;;;;;;;;5035654;28;20036;-55
2021/03/12 03:56:50;;;;;;;6.53;3.13;;;;;;;;;;5035373;28;20037;-55
2021/03/12 03:59:18;;;;;;;6.97;2.37;;;;;;;;;;5035480;28;20118;-55
2021/03/12 04:01:46;;;;;;;11.67;3.10;;;;;;;;;;5035501;28;20032;-55
2021/03/12 04:04:13;;;;;;;9.00;3.00;;;;;;;;;;5035504;28;20033;-55
2021/03/12 04:06:42;;;;;;;7.47;2.90;;;;;;;;;;5035413;28;20051;-55
2021/03/12 04:09:12;;;;;;;5.63;2.77;;;;;;;;;;5035412;28;20035;-55
2021/03/12 04:11:39;;;;;;;6.33;3.70;;;;;;;;;;5017832;28;20030;-55
2021/03/12 04:14:06;;;;;;;8.73;3.30;;;;;;;;;;5035214;28;20089;-55
2021/03/12 04:16:33;;;;;;;3.73;2.60;;;;;;;;;;5035291;28;20105;-55
2021/03/12 04:19:01;;;;;;;7.43;3.17;;;;;;;;;;5034928;28;20476;-55
2021/03/12 04:21:28;;;;;;;6.40;2.83;;;;;;;;;;5017290;28;20480;-55
2021/03/12 04:23:56;;;;;;;7.23;4.07;;;;;;;;;;5035075;28;20030;-55
2021/03/12 04:26:24;;;;;;;8.27;3.10;;;;;;;;;;5034955;28;20026;-55
2021/03/12 04:28:51;;;;;;;5.37;3.30;;;;;;;;;;5034977;28;20110;-55
2021/03/12 04:31:18;;;;;;;4.33;3.20;;;;;;;;;;5034855;28;20437;-55
2021/03/12 04:33:45;;;;;;;5.57;3.20;;;;;;;;;;5036110;28;20053;-55
2021/03/12 04:36:12;;;;;;;5.80;3.43;;;;;;;;;;5034838;28;20053;-55
2021/03/12 04:38:39;;;;;;;5.60;3.90;;;;;;;;;;5034709;28;20037;-55
2021/03/12 04:41:06;;;;;;;4.87;3.37;;;;;;;;;;5034777;28;20022;-55
2021/03/12 04:43:34;;;;;;;5.03;3.10;;;;;;;;;;5034179;28;20030;-55
2021/03/12 04:46:02;;;;;;;7.93;3.10;;;;;;;;;;5034607;28;20033;-55
2021/03/12 04:48:30;;;;;;;4.27;2.70;;;;;;;;;;5034564;28;20503;-55
2021/03/12 04:50:57;;;;;;;5.87;2.93;;;;;;;;;;5034590;28;20029;-55
2021/03/12 04:53:24;;;;;;;7.90;3.13;;;;;;;;;;5034457;28;20033;-55
2021/03/12 04:55:52;;;;;;;12.93;2.40;;;;;;;;;;5034434;28;20076;-55
2021/03/12 04:58:18;;;;;;;3.97;2.20;;;;;;;;;;5034410;28;20080;-55
2021/03/12 05:00:45;;;;;;;10.73;2.63;;;;;;;;;;5034212;28;20502;-55
2021/03/12 05:03:12;;;;;;;9.23;2.87;;;;;;;;;;5016905;28;20496;-55
2021/03/12 05:05:40;;;;;;;6.50;2.80;;;;;;;;;;5034328;28;20029;-55
2021/03/12 05:08:10;;;;;;;3.70;2.73;;;;;;;;;;5034298;28;20029;-55
2021/03/12 05:10:37;;;;;;;6.63;2.87;;;;;;;;;;5034135;28;20053;-55
2021/03/12 05:13:04;;;;;;;7.03;2.67;;;;;;;;;;5034022;28;20033;-55
2021/03/12 05:15:31;;;;;;;5.47;3.13;;;;;;;;;;5033980;28;20481;-55
2021/03/12 05:17:58;;;;;;;5.17;3.00;;;;;;;;;;5016429;28;20096;-55
2021/03/12 05:20:25;;;;;;;7.50;2.87;;;;;;;;;;5033965;28;20057;-54
2021/03/12 05:22:51;;;;;;;5.13;3.00;;;;;;;;;;5033682;28;20104;-54
2021/03/12 05:25:18;;;;;;;5.20;2.87;;;;;;;;;;5033877;28;20420;-54
2021/03/12 05:27:46;;;;;;;3.47;2.33;;;;;;;;;;5033876;28;20025;-54
2021/03/12 05:30:13;;;;;;;5.97;3.90;;;;;;;;;;5033765;28;20530;-54
2021/03/12 05:32:41;;;;;;;8.30;3.30;;;;;;;;;;5034963;28;20051;-53
2021/03/12 05:35:08;;;;;;;6.53;3.37;;;;;;;;;;5033824;28;20034;-54
2021/03/12 05:37:35;;;;;;;6.37;2.70;;;;;;;;;;5033558;28;20041;-55
2021/03/12 05:40:02;;;;;;;4.90;2.97;;;;;;;;;;5033561;28;20032;-54
2021/03/12 05:42:29;;;;;;;5.90;2.80;;;;;;;;;;5033541;28;20030;-54
2021/03/12 05:44:58;;;;;;;4.53;2.77;;;;;;;;;;5033503;28;20535;-54
2021/03/12 05:47:25;;;;;;;5.27;2.93;;;;;;;;;;5033462;28;20108;-54
2021/03/12 05:49:53;;;;;;;7.20;3.37;;;;;;;;;;5033490;28;20051;-54
2021/03/12 05:52:21;;;;;;;6.97;3.20;;;;;;;;;;5033404;28;20088;-54
2021/03/12 05:54:48;;;;;;;6.10;2.93;;;;;;;;;;5032613;28;20087;-54
2021/03/12 05:57:15;;;;;;;6.60;3.10;;;;;;;;;;5033312;28;20077;-54
2021/03/12 05:59:42;;;;;;;5.37;3.10;;;;;;;;;;5033348;28;20044;-54
2021/03/12 06:02:09;;;;;;;4.13;2.60;;;;;;;;;;5033149;28;20365;-54
2021/03/12 06:04:36;;;;;;;5.37;3.07;;;;;;;;;;5033098;28;20033;-54
2021/03/12 06:07:02;;;;;;;5.13;2.80;;;;;;;;;;5033292;28;20029;-54
2021/03/12 06:09:29;;;;;;;5.57;3.20;;;;;;;;;;5033249;28;20407;-54
2021/03/12 06:11:56;;;;;;;7.80;3.23;;;;;;;;;;5033061;28;20036;-54
2021/03/12 06:14:41;;;;;;;6.50;3.70;;;;;;;;;;5033012;28;20025;-54
2021/03/12 06:17:08;;;;;;;7.22;3.90;;;;;;;;;;5033121;28;20025;-54
2021/03/12 06:19:34;;;;;;;6.90;3.03;;;;;;;;;;5033087;28;20550;-54
2021/03/12 06:22:07;;;;;;;8.90;3.83;;;;;;;;;;5032926;28;20579;-54
2021/03/12 06:24:34;;;;;;;6.00;3.50;;;;;;;;;;5033005;28;20044;-54
2021/03/12 06:27:01;;;;;;;5.57;2.90;;;;;;;;;;5033014;28;20025;-54
2021/03/12 06:29:46;;;;;;;6.10;3.47;;;;;;;;;;5015297;28;20500;-54
2021/03/12 06:32:13;;;;;;;7.38;3.40;;;;;;;;;;5032823;28;20056;-54
2021/03/12 06:34:40;;;;;;;4.13;2.40;;;;;;;;;;5034307;28;20065;-54
2021/03/12 06:37:28;;;;;;;7.37;3.10;;;;;;;;;;5032631;28;20033;-54
2021/03/12 06:39:54;;;;;;;5.83;2.33;;;;;;;;;;5032711;28;20053;-54
2021/03/12 06:42:21;;;;;;;6.97;3.33;;;;;;;;;;5032789;28;20047;-54
2021/03/12 06:44:48;;;;;;;6.30;3.30;;;;;;;;;;5032753;28;20105;-54
2021/03/12 06:47:20;;;;;;;7.23;2.87;;;;;;;;;;5032603;28;20388;-54
2021/03/12 06:49:54;;;;;;;10.03;3.40;;;;;;;;;;5032719;28;20096;-54
2021/03/12 06:52:31;;;;;;;8.65;3.13;;;;;;;;;;5032501;28;20028;-54
2021/03/12 06:54:58;;;;;;;5.47;3.10;;;;;;;;;;5032562;28;20038;-54
2021/03/12 06:57:25;;;;;;;5.60;3.00;;;;;;;;;;5032470;28;20029;-54
2021/03/12 07:00:01;;;;;;;10.47;4.03;;;;;;;;;;5014754;28;20025;-54
2021/03/12 07:02:32;;;;;;;8.10;3.53;;;;;;;;;;5032396;28;20061;-54
2021/03/12 07:04:59;;;;;;;6.27;3.93;;;;;;;;;;5032617;28;20449;-54
2021/03/12 07:07:36;;;;;;;6.37;3.10;;;;;;;;;;5035737;28;20476;-54
2021/03/12 07:10:04;;;;;;;8.93;3.67;;;;;;;;;;5036532;28;20052;-54
2021/03/12 07:12:48;;;;;;;7.23;3.47;;;;;;;;;;5036303;28;20014;-54
2021/03/12 07:15:15;;;;;;;5.80;3.67;;;;;;;;;;5036278;28;20113;-54
2021/03/12 07:17:42;;;;;;;12.63;4.57;;;;;;;;;;5036310;28;20088;-54
2021/03/12 07:20:11;;;;;;;7.00;3.77;;;;;;;;;;5036175;28;20036;-54
2021/03/12 07:22:39;;;;;;;9.10;4.03;;;;;;;;;;5036164;28;20104;-54
2021/03/12 07:25:09;;;;;;;5.80;3.40;;;;;;;;;;5036293;28;20481;-54
2021/03/12 07:27:39;;;;;;;7.20;3.57;;;;;;;;;;5036206;28;20049;-54
2021/03/12 07:30:07;;;;;;;22.33;4.43;;;;;;;;;;5036186;28;20017;-54
2021/03/12 07:32:36;;;;;;;7.40;4.43;;;;;;;;;;5037146;28;20029;-54
2021/03/12 07:35:03;;;;;;;6.47;4.00;;;;;;;;;;5016118;28;20524;-54
2021/03/12 07:37:33;;;;;;;6.50;4.20;;;;;;;;;;5016059;28;20045;-54
2021/03/12 07:40:01;;;;;;;9.23;3.67;;;;;;;;;;5016057;28;20022;-54
2021/03/12 07:42:28;;;;;;;5.27;3.50;;;;;;;;;;5016040;28;20081;-54
2021/03/12 07:44:56;;;;;;;5.37;3.30;;;;;;;;;;5016150;28;20032;-54
2021/03/12 07:47:24;;;;;;;4.70;3.00;;;;;;;;;;5015947;28;20033;-54
2021/03/12 07:49:51;;;;;;;6.07;4.27;;;;;;;;;;5016080;28;20464;-54
2021/03/12 07:52:18;;;;;;;7.80;4.10;;;;;;;;;;5015959;28;20029;-54
2021/03/12 07:54:44;;;;;;;7.53;4.43;;;;;;;;;;5015827;28;20465;-54
2021/03/12 07:57:12;;;;;;;8.07;4.50;;;;;;;;;;5015823;28;20034;-54
2021/03/12 07:59:47;;;;;;;7.60;4.70;;;;;;;;;;5015866;28;20342;-54
2021/03/12 08:02:17;;;;;;;8.53;4.93;;;;;;;;;;5015690;28;20026;-54
2021/03/12 08:04:45;;;;;;;9.87;5.03;;;;;;;;;;5015589;28;20400;-54
2021/03/12 08:07:18;;;;;;;7.50;4.90;;;;;;;;;;5015533;28;20026;-54
2021/03/12 08:09:46;;;;;;;10.93;4.93;;;;;;;;;;5015525;28;20038;-54
2021/03/12 08:12:32;;;;;;;7.10;5.30;;;;;;;;;;5015634;28;20033;-54
2021/03/12 08:15:21;;;;;;;7.40;5.07;;;;;;;;;;4997958;28;20511;-54
2021/03/12 08:18:08;;;;;;;7.90;5.10;;;;;;;;;;5002117;28;20481;-54
2021/03/12 08:20:43;;;;;;;6.00;4.30;;;;;;;;;;5002173;28;20088;-54
2021/03/12 08:23:29;;;;;;;8.95;5.47;;;;;;;;;;5015245;28;20097;-54
2021/03/12 08:25:56;;;;;;;11.93;5.73;;;;;;;;;;5015221;28;20033;-54
2021/03/12 08:28:26;;;;;;;9.13;5.40;;;;;;;;;;5015313;28;20017;-54
2021/03/12 08:30:54;;;;;;;9.23;5.13;;;;;;;;;;5015136;28;20417;-54
2021/03/12 08:33:23;;;;;;;7.80;5.00;;;;;;;;;;5022425;28;20049;-54
2021/03/12 08:35:51;;;;;;;8.70;5.63;;;;;;;;;;5034886;28;20123;-54
2021/03/12 08:38:30;;;;;;;9.27;6.50;;;;;;;;;;5034681;28;20092;-54
2021/03/12 08:41:04;;;;;;;8.23;5.43;;;;;;;;;;5034765;28;20376;-54
2021/03/12 08:43:32;;;;;;;9.00;4.93;;;;;;;;;;5034877;28;20413;-54
2021/03/12 08:46:03;;;;;;;11.50;5.57;;;;;;;;;;5034813;28;20033;-54
2021/03/12 08:48:34;;;;;;;12.77;5.60;;;;;;;;;;5034717;28;20028;-54
2021/03/12 08:51:09;;;;;;;9.43;5.53;;;;;;;;;;5034489;28;20022;-54
2021/03/12 08:53:37;;;;;;;11.68;5.72;;;;;;;;;;5034605;28;20029;-54
2021/03/12 08:56:05;;;;;;;9.90;5.30;;;;;;;;;;5034584;28;20432;-54
2021/03/12 08:58:32;;;;;;;8.87;4.97;;;;;;;;;;5034451;28;20033;-54
2021/03/12 09:01:10;;;;;;;7.63;4.43;;;;;;;;;;5034417;28;20028;-54
2021/03/12 09:03:37;;;;;;;7.33;4.37;;;;;;;;;;5034428;28;20076;-54
2021/03/12 09:06:13;;;;;;;7.23;4.90;;;;;;;;;;5034178;28;20028;-54
2021/03/12 09:08:41;;;;;;;7.03;4.73;;;;;;;;;;5034350;28;20029;-54
2021/03/12 09:11:09;;;;;;;6.77;4.73;;;;;;;;;;5034206;28;20033;-54
2021/03/12 09:13:42;;;;;;;7.67;5.40;;;;;;;;;;5034018;28;20613;-53
2021/03/12 09:16:10;;;;;;;12.93;5.50;;;;;;;;;;5034291;28;20504;-54
2021/03/12 09:18:39;;;;;;;7.70;4.57;;;;;;;;;;5033960;28;20718;-54
2021/03/12 09:21:07;;;;;;;7.37;4.70;;;;;;;;;;5033939;28;20251;-54
2021/03/12 09:23:37;;;;;;;7.93;5.13;;;;;;;;;;5033838;28;20330;-53
2021/03/12 09:26:05;;;;;;;7.87;5.50;;;;;;;;;;5033972;28;20262;-54
2021/03/12 09:28:32;;;;;;;6.33;4.90;;;;;;;;;;5033580;28;20665;-54
2021/03/12 09:31:00;;;;;;;9.13;5.53;;;;;;;;;;5033778;28;20286;-53
2021/03/12 09:33:30;;;;;;;7.07;4.50;;;;;;;;;;5034429;28;20290;-54
2021/03/12 09:35:57;;;;;;;13.73;5.83;;;;;;;;;;5033854;28;20730;-53
2021/03/12 09:38:28;;;;;;;8.80;5.77;;;;;;;;;;5033686;28;20301;-54
2021/03/12 09:40:55;;;;;;;6.70;4.63;;;;;;;;;;5033628;28;20261;-54
2021/03/12 09:43:22;;;;;;;8.20;5.30;;;;;;;;;;5033607;28;20269;-54
2021/03/12 09:45:49;;;;;;;9.33;6.47;;;;;;;;;;5033566;28;20259;-54
2021/03/12 09:48:16;;;;;;;10.63;6.10;;;;;;;;;;5033478;28;20342;-54
2021/03/12 09:50:43;;;;;;;8.10;5.23;;;;;;;;;;5033499;28;20249;-54
2021/03/12 09:53:10;;;;;;;7.23;4.80;;;;;;;;;;5033373;28;20250;-53
2021/03/12 09:55:38;;;;;;;13.77;5.97;;;;;;;;;;5033486;28;20243;-53
2021/03/12 09:58:08;;;;;;;8.73;5.50;;;;;;;;;;5033552;28;20286;-54
2021/03/12 10:00:35;;;;;;;9.30;4.97;;;;;;;;;;5033372;28;20274;-53
2021/03/12 10:03:03;;;;;;;8.27;4.63;;;;;;;;;;5033323;28;20259;-54
2021/03/12 10:05:30;;;;;;;7.53;4.97;;;;;;;;;;5033202;28;20309;-53
2021/03/12 10:08:01;;;;;;;13.97;6.13;;;;;;;;;;5033318;28;20254;-53
2021/03/12 10:10:30;;;;;;;8.20;5.30;;;;;;;;;;5033056;28;20255;-54
2021/03/12 10:12:58;;;;;;;7.27;5.53;;;;;;;;;;5033185;28;20278;-54
2021/03/12 10:15:27;;;;;;;7.47;4.60;;;;;;;;;;5033008;28;20721;-54
2021/03/12 10:17:54;;;;;;;8.07;5.87;;;;;;;;;;5032874;28;20278;-53
2021/03/12 10:20:27;;;;;;;6.47;4.97;;;;;;;;;;5032914;28;20266;-53
2021/03/12 10:22:54;;;;;;;11.67;6.93;;;;;;;;;;5032744;28;20247;-53
2021/03/12 10:25:24;;;;;;;9.00;5.97;;;;;;;;;;5033007;28;20258;-54
2021/03/12 10:27:55;;;;;;;9.10;6.17;;;;;;;;;;5015143;28;20302;-54
2021/03/12 10:30:22;;;;;;;9.23;5.83;;;;;;;;;;5032935;28;20304;-53
2021/03/12 10:33:03;;;;;;;9.90;5.50;;;;;;;;;;5032973;28;20341;-53
2021/03/12 10:35:32;;;;;;;10.10;5.43;;;;;;;;;;5032688;28;20362;-53
2021/03/12 10:38:02;;;;;;;9.30;6.17;;;;;;;;;;5032766;28;20304;-53
2021/03/12 10:40:35;;;;;;;7.30;4.70;;;;;;;;;;5032291;28;20657;-53
2021/03/12 10:43:11;;;;;;;7.13;4.70;;;;;;;;;;5032767;28;20251;-54
2021/03/12 10:45:43;;;;;;;8.87;4.30;;;;;;;;;;5032779;28;20297;-53
2021/03/12 10:48:10;;;;;;;10.70;5.17;;;;;;;;;;5015008;28;20753;-53
2021/03/12 10:50:37;;;;;;;10.43;5.57;;;;;;;;;;5032661;28;20609;-53
2021/03/12 10:53:12;;;;;;;8.50;6.03;;;;;;;;;;5032763;28;20283;-53
2021/03/12 10:55:41;;;;;;;9.82;5.10;;;;;;;;;;5032764;28;20247;-54
2021/03/12 10:58:21;;;;;;;8.10;5.87;;;;;;;;;;5032481;28;20042;-53
2021/03/12 11:01:02;;;;;;;7.73;5.10;;;;;;;;;;5032430;28;20247;-53
2021/03/12 11:03:28;;;;;;;5.90;4.57;;;;;;;;;;5032679;28;20262;-53
2021/03/12 11:05:55;;;;;;;8.80;5.93;;;;;;;;;;5014885;28;20258;-53
2021/03/12 11:08:22;;;;;;;8.67;5.40;;;;;;;;;;5032592;28;20404;-53
2021/03/12 11:10:49;;;;;;;9.83;6.10;;;;;;;;;;5032505;28;20738;-53
2021/03/12 11:13:16;;;;;;;10.10;5.80;;;;;;;;;;5032536;28;20251;-53
2021/03/12 11:15:42;;;;;;;12.80;6.10;;;;;;;;;;5032509;28;20258;-53
2021/03/12 11:18:09;;;;;;;11.73;5.57;;;;;;;;;;5032333;28;20326;-54
2021/03/12 11:20:36;;;;;;;7.97;5.60;;;;;;;;;;5032476;28;20275;-54
2021/03/12 11:23:03;;;;;;;10.00;5.23;;;;;;;;;;5032307;28;20265;-54
2021/03/12 11:25:29;;;;;;;9.63;5.93;;;;;;;;;;5032259;28;20254;-55
2021/03/12 11:27:56;;;;;;;8.43;5.63;;;;;;;;;;5032301;28;20258;-54
2021/03/12 11:30:23;;;;;;;8.43;5.57;;;;;;;;;;5032255;28;20266;-53
2021/03/12 11:32:50;;;;;;;7.90;5.17;;;;;;;;;;5032418;28;20465;-53
2021/03/12 11:35:17;;;;;;;8.23;5.00;;;;;;;;;;5033571;28;20294;-53
2021/03/12 11:37:45;;;;;;;7.47;4.67;;;;;;;;;;5032266;28;20353;-53
2021/03/12 11:40:13;;;;;;;8.30;4.77;;;;;;;;;;5032094;28;20271;-53
2021/03/12 11:42:40;;;;;;;8.80;5.80;;;;;;;;;;5032247;28;20250;-53
2021/03/12 11:45:08;;;;;;;8.90;5.73;;;;;;;;;;5032267;28;20301;-53
2021/03/12 11:47:35;;;;;;;8.07;5.50;;;;;;;;;;5032172;28;20602;-53
2021/03/12 11:50:03;;;;;;;8.50;6.10;;;;;;;;;;5032285;28;20269;-53
2021/03/12 11:52:30;;;;;;;9.07;5.80;;;;;;;;;;5032211;28;20281;-53
2021/03/12 11:54:57;;;;;;;8.90;5.50;;;;;;;;;;5035676;28;20255;-53
2021/03/12 11:57:24;;;;;;;6.80;4.43;;;;;;;;;;5035305;28;20287;-53
2021/03/12 11:59:51;;;;;;;7.00;4.73;;;;;;;;;;5035305;28;20263;-53
2021/03/12 12:02:18;;;;;;;5.73;4.43;;;;;;;;;;5035608;28;20258;-53
2021/03/12 12:04:48;;;;;;;8.07;5.10;;;;;;;;;;5035560;28;20267;-53
2021/03/12 12:07:15;;;;;;;10.30;4.83;;;;;;;;;;5035396;28;20254;-53
2021/03/12 12:09:43;;;;;;;13.23;5.70;;;;;;;;;;5035177;28;20267;-53
2021/03/12 12:12:13;;;;;;;7.10;4.73;;;;;;;;;;5035142;28;20259;-53
2021/03/12 12:14:40;;;;;;;9.30;5.43;;;;;;;;;;5035176;28;20263;-53
2021/03/12 12:17:08;;;;;;;9.10;5.50;;;;;;;;;;5035029;28;20279;-54
2021/03/12 12:19:35;;;;;;;8.87;5.00;;;;;;;;;;5035116;28;20267;-54
2021/03/12 12:22:02;;;;;;;8.23;5.57;;;;;;;;;;5035016;28;20317;-53
2021/03/12 12:24:29;;;;;;;8.20;5.43;;;;;;;;;;5035139;28;20271;-53
2021/03/12 12:26:56;;;;;;;9.77;5.17;;;;;;;;;;5035148;28;20251;-53
2021/03/12 12:29:22;;;;;;;7.93;5.10;;;;;;;;;;5034981;28;20269;-53
2021/03/12 12:31:49;;;;;;;7.20;5.23;;;;;;;;;;5034836;28;20261;-53
2021/03/12 12:34:16;;;;;;;10.47;5.67;;;;;;;;;;5036140;28;20282;-53
2021/03/12 12:36:43;;;;;;;11.40;4.53;;;;;;;;;;5034847;28;20290;-53
2021/03/12 12:39:10;;;;;;;11.13;4.93;;;;;;;;;;5034687;28;20287;-53
2021/03/12 12:41:40;;;;;;;16.57;5.70;;;;;;;;;;5034648;28;20342;-53
2021/03/12 12:44:10;;;;;;;8.23;4.90;;;;;;;;;;5034651;28;20262;-53
2021/03/12 12:46:39;;;;;;;10.63;5.23;;;;;;;;;;5034699;28;20286;-53
2021/03/12 12:49:06;;;;;;;8.53;4.40;;;;;;;;;;5034701;28;20250;-53
2021/03/12 12:51:33;;;;;;;8.33;4.53;;;;;;;;;;5034742;28;20410;-53
2021/03/12 12:54:00;;;;;;;7.90;5.27;;;;;;;;;;5034431;28;20309;-54
2021/03/12 12:56:26;;;;;;;12.03;6.07;;;;;;;;;;5034765;28;20342;-53
2021/03/12 12:58:53;;;;;;;15.87;7.03;;;;;;;;;;5034401;28;20642;-53
2021/03/12 13:01:20;;;;;;;18.27;8.80;;;;;;;;;;5034328;28;20654;-53
2021/03/12 13:03:47;;;;;;;14.17;6.10;;;;;;;;;;5033915;28;20753;-53
2021/03/12 13:06:14;;;;;;;10.23;5.97;;;;;;;;;;5034403;28;20254;-53
2021/03/12 13:08:41;;;;;;;16.53;5.83;;;;;;;;;;5034140;28;20266;-53
2021/03/12 13:11:07;;;;;;;13.00;6.70;;;;;;;;;;5034119;28;20306;-53
2021/03/12 13:13:34;;;;;;;14.93;6.43;;;;;;;;;;5034130;28;20285;-53
2021/03/12 13:16:02;;;;;;;9.70;6.17;;;;;;;;;;5034036;28;20251;-53
2021/03/12 13:18:29;;;;;;;15.23;7.70;;;;;;;;;;5033944;28;20385;-53
2021/03/12 13:21:02;;;;;;;14.50;6.07;;;;;;;;;;5033905;28;20267;-53
2021/03/12 13:23:29;;;;;;;15.27;6.57;;;;;;;;;;5033916;28;20271;-53
2021/03/12 13:25:56;;;;;;;15.07;6.87;;;;;;;;;;5033885;28;20650;-53
2021/03/12 13:28:23;;;;;;;17.67;7.67;;;;;;;;;;5034247;28;20389;-53
2021/03/12 13:30:50;;;;;;;12.03;7.07;;;;;;;;;;5033761;28;20255;-53
2021/03/12 13:33:17;;;;;;;16.23;7.40;;;;;;;;;;5035131;28;20251;-53
2021/03/12 13:35:44;;;;;;;19.83;7.33;;;;;;;;;;5033593;28;20286;-53
2021/03/12 13:38:11;;;;;;;13.80;6.73;;;;;;;;;;5033563;28;20283;-54
2021/03/12 13:40:39;;;;;;;13.20;5.57;;;;;;;;;;5033687;28;20677;-53
2021/03/12 13:43:06;;;;;;;23.47;6.00;;;;;;;;;;5033494;28;20266;-53
2021/03/12 13:45:33;;;;;;;12.80;6.20;;;;;;;;;;5033446;28;20271;-54
2021/03/12 13:48:01;;;;;;;13.80;7.23;;;;;;;;;;5033487;28;20776;-53
2021/03/12 13:50:29;;;;;;;13.40;6.37;;;;;;;;;;5033596;28;20262;-54
2021/03/12 13:52:55;;;;;;;11.53;5.50;;;;;;;;;;5033452;28;20685;-54
2021/03/12 13:55:22;;;;;;;8.70;4.73;;;;;;;;;;5033440;28;20262;-54
2021/03/12 13:57:49;;;;;;;6.90;4.73;;;;;;;;;;5033148;28;20037;-54
2021/03/12 14:00:16;;;;;;;13.13;4.37;;;;;;;;;;5033220;28;20116;-54
2021/03/12 14:02:43;;;;;;;9.03;4.70;;;;;;;;;;5033174;28;20035;-54
2021/03/12 14:05:11;;;;;;;13.73;5.17;;;;;;;;;;5033280;28;20049;-54
2021/03/12 14:07:38;;;;;;;11.03;5.40;;;;;;;;;;5033264;28;20029;-54
2021/03/12 14:10:06;;;;;;;6.87;4.93;;;;;;;;;;5033199;28;20033;-54
2021/03/12 14:12:33;;;;;;;10.20;5.33;;;;;;;;;;5033057;28;20064;-54
2021/03/12 14:14:59;;;;;;;11.13;4.97;;;;;;;;;;5033194;28;20462;-54
2021/03/12 14:17:26;;;;;;;9.03;5.50;;;;;;;;;;5032628;28;20492;-54
2021/03/12 14:19:53;;;;;;;9.43;5.57;;;;;;;;;;5032996;28;20033;-54
2021/03/12 14:22:20;;;;;;;7.73;4.93;;;;;;;;;;5032877;28;20384;-54
2021/03/12 14:24:47;;;;;;;9.20;4.60;;;;;;;;;;5032925;28;20025;-54
2021/03/12 14:27:15;;;;;;;6.63;3.87;;;;;;;;;;5032882;28;20025;-54
2021/03/12 14:29:42;;;;;;;8.87;4.17;;;;;;;;;;5032822;28;20036;-54
2021/03/12 14:32:09;;;;;;;11.10;3.70;;;;;;;;;;5032937;28;20098;-54
2021/03/12 14:34:36;;;;;;;6.23;4.07;;;;;;;;;;5034201;28;20060;-55
2021/03/12 14:37:03;;;;;;;8.60;3.80;;;;;;;;;;5032685;28;20031;-54
2021/03/12 14:39:30;;;;;;;9.00;4.00;;;;;;;;;;5032701;28;20049;-54
2021/03/12 14:41:57;;;;;;;4.97;3.60;;;;;;;;;;5032738;28;20373;-55
2021/03/12 14:44:25;;;;;;;5.90;3.40;;;;;;;;;;5032815;28;20047;-54
2021/03/12 14:46:52;;;;;;;6.33;4.17;;;;;;;;;;5032574;28;20108;-55